Time;durP1;ratioP1;P1;durP2;ratioP2;P2;SDS_P1;SDS_P2;PMS_P1;PMS_P2;Temp;Humidity;BMP_temperature;BMP_pressure;BME280_temperature;BME280_humidity;BME280_pressure;Samples;Min_cycle;Max_cycle;Signal;HPM_P1;HPM_P2
2022/02/25 00:00:30;;;;;;;37.85;21.77;;;;;;;;;;4979357;28;20439;-71
2022/02/25 00:02:56;;;;;;;36.63;22.63;;;;;;;;;;4979767;28;20430;-70
2022/02/25 00:05:22;;;;;;;39.05;21.92;;;;;;;;;;4976661;28;20097;-71
2022/02/25 00:07:48;;;;;;;38.63;22.63;;;;;;;;;;4975568;28;20018;-70
2022/02/25 00:10:14;;;;;;;39.45;22.90;;;;;;;;;;4978209;28;20127;-71
2022/02/25 00:12:41;;;;;;;39.47;23.77;;;;;;;;;;4980137;28;20577;-71
2022/02/25 00:15:07;;;;;;;35.75;21.45;;;;;;;;;;4977199;28;20027;-71
2022/02/25 00:17:33;;;;;;;34.13;21.42;;;;;;;;;;4977080;28;20481;-71
2022/02/25 00:19:59;;;;;;;42.30;22.83;;;;;;;;;;4980054;28;20027;-70
2022/02/25 00:22:25;;;;;;;33.80;20.95;;;;;;;;;;4978594;28;20039;-71
2022/02/25 00:24:51;;;;;;;36.88;21.30;;;;;;;;;;4982572;28;20110;-71
2022/02/25 00:27:17;;;;;;;32.10;21.08;;;;;;;;;;4976102;28;20172;-71
2022/02/25 00:29:43;;;;;;;40.53;21.75;;;;;;;;;;4974035;28;20034;-71
2022/02/25 00:32:09;;;;;;;36.03;22.80;;;;;;;;;;4971125;28;20046;-70
2022/02/25 00:34:36;;;;;;;39.03;23.27;;;;;;;;;;4976012;28;20083;-71
2022/02/25 00:37:02;;;;;;;39.60;24.50;;;;;;;;;;4976194;28;20395;-72
2022/02/25 00:39:28;;;;;;;33.53;22.90;;;;;;;;;;4976269;28;20025;-72
2022/02/25 00:41:54;;;;;;;34.63;23.23;;;;;;;;;;4979059;28;20044;-72
2022/02/25 00:44:20;;;;;;;35.50;24.00;;;;;;;;;;4975188;28;20029;-72
2022/02/25 00:46:46;;;;;;;35.88;23.00;;;;;;;;;;4978761;28;20026;-72
2022/02/25 00:49:12;;;;;;;36.28;22.60;;;;;;;;;;4996550;28;20033;-72
2022/02/25 00:51:39;;;;;;;37.65;23.40;;;;;;;;;;4978949;28;20066;-72
2022/02/25 00:54:05;;;;;;;37.78;22.70;;;;;;;;;;4977745;28;20042;-72
2022/02/25 00:56:31;;;;;;;37.63;21.80;;;;;;;;;;4982052;28;20027;-72
2022/02/25 00:58:57;;;;;;;42.35;23.27;;;;;;;;;;4977236;28;20042;-71
2022/02/25 01:01:23;;;;;;;35.85;23.00;;;;;;;;;;4977029;28;20031;-71
2022/02/25 01:03:49;;;;;;;36.35;22.98;;;;;;;;;;4978222;28;20052;-71
2022/02/25 01:06:15;;;;;;;38.42;21.83;;;;;;;;;;4975948;28;20031;-71
2022/02/25 01:08:41;;;;;;;31.15;21.00;;;;;;;;;;4979945;28;20122;-71
2022/02/25 01:11:07;;;;;;;36.85;22.20;;;;;;;;;;4977538;28;20087;-71
2022/02/25 01:13:33;;;;;;;33.17;21.70;;;;;;;;;;4978725;28;20074;-72
2022/02/25 01:15:59;;;;;;;31.88;22.05;;;;;;;;;;4977437;28;20038;-72
2022/02/25 01:18:25;;;;;;;32.10;21.52;;;;;;;;;;4986959;28;20030;-72
2022/02/25 01:20:51;;;;;;;36.70;22.10;;;;;;;;;;4991030;28;20484;-72
2022/02/25 01:23:17;;;;;;;37.75;25.90;;;;;;;;;;4988242;28;20034;-72
2022/02/25 01:25:43;;;;;;;40.30;26.17;;;;;;;;;;4991054;28;20022;-72
2022/02/25 01:28:09;;;;;;;40.03;25.80;;;;;;;;;;4989700;28;20201;-72
2022/02/25 01:30:35;;;;;;;40.17;25.90;;;;;;;;;;4990312;28;20019;-72
2022/02/25 01:33:01;;;;;;;38.53;25.60;;;;;;;;;;4989182;28;20096;-72
2022/02/25 01:35:27;;;;;;;36.80;24.42;;;;;;;;;;4983813;28;20027;-72
2022/02/25 01:37:53;;;;;;;39.90;26.48;;;;;;;;;;4982579;28;20087;-71
2022/02/25 01:40:22;;;;;;;39.38;26.23;;;;;;;;;;4989827;28;20065;-72
2022/02/25 01:42:49;;;;;;;42.50;25.57;;;;;;;;;;4986044;28;21896;-72
2022/02/25 01:45:15;;;;;;;40.55;26.17;;;;;;;;;;4982418;28;20027;-72
2022/02/25 01:47:41;;;;;;;39.10;25.67;;;;;;;;;;4988576;28;20033;-72
2022/02/25 01:50:07;;;;;;;37.63;24.50;;;;;;;;;;4990446;28;20401;-72
2022/02/25 01:52:34;;;;;;;40.22;24.80;;;;;;;;;;4989030;28;20121;-72
2022/02/25 01:55:00;;;;;;;39.85;26.48;;;;;;;;;;4989194;28;20019;-72
2022/02/25 01:57:26;;;;;;;38.85;25.63;;;;;;;;;;4989810;28;20023;-72
2022/02/25 01:59:52;;;;;;;37.47;24.43;;;;;;;;;;4989499;28;20023;-71
2022/02/25 02:02:18;;;;;;;40.90;26.98;;;;;;;;;;4989894;28;20038;-72
2022/02/25 02:04:44;;;;;;;39.47;25.30;;;;;;;;;;4988294;28;20084;-72
2022/02/25 02:07:10;;;;;;;37.72;24.75;;;;;;;;;;4971342;28;20054;-72
2022/02/25 02:09:36;;;;;;;33.57;23.17;;;;;;;;;;4985522;28;20027;-72
2022/02/25 02:12:03;;;;;;;38.90;24.47;;;;;;;;;;4989215;28;20031;-72
2022/02/25 02:14:29;;;;;;;32.10;22.63;;;;;;;;;;4987815;28;20027;-72
2022/02/25 02:16:56;;;;;;;33.30;23.13;;;;;;;;;;4986007;28;20477;-72
2022/02/25 02:19:22;;;;;;;32.97;22.60;;;;;;;;;;4978695;28;20026;-71
2022/02/25 02:21:50;;;;;;;34.47;22.63;;;;;;;;;;4993339;28;20027;-71
2022/02/25 02:24:17;;;;;;;34.00;23.80;;;;;;;;;;4991675;28;20075;-71
2022/02/25 02:26:44;;;;;;;33.43;22.13;;;;;;;;;;4993560;28;20026;-71
2022/02/25 02:29:10;;;;;;;30.00;21.37;;;;;;;;;;4992742;28;20029;-71
2022/02/25 02:31:36;;;;;;;33.27;21.70;;;;;;;;;;4979021;28;20038;-71
2022/02/25 02:34:03;;;;;;;29.80;21.30;;;;;;;;;;4987249;28;20084;-71
2022/02/25 02:36:29;;;;;;;32.93;22.93;;;;;;;;;;4993732;28;20022;-72
2022/02/25 02:38:55;;;;;;;31.47;21.33;;;;;;;;;;4990427;28;20502;-71
2022/02/25 02:41:21;;;;;;;32.17;21.20;;;;;;;;;;4986937;28;20488;-71
2022/02/25 02:43:47;;;;;;;32.47;20.53;;;;;;;;;;4993050;28;20034;-72
2022/02/25 02:46:13;;;;;;;28.07;20.07;;;;;;;;;;4987993;28;20022;-72
2022/02/25 02:48:40;;;;;;;30.87;20.47;;;;;;;;;;4985437;28;20026;-71
2022/02/25 02:51:06;;;;;;;32.47;20.40;;;;;;;;;;4985066;28;20027;-72
2022/02/25 02:53:32;;;;;;;28.83;19.40;;;;;;;;;;4991115;28;20031;-71
2022/02/25 02:55:58;;;;;;;31.77;19.50;;;;;;;;;;4991744;28;20027;-71
2022/02/25 02:58:24;;;;;;;28.50;20.20;;;;;;;;;;4986408;28;20360;-72
2022/02/25 03:00:51;;;;;;;31.13;20.93;;;;;;;;;;4993135;28;20018;-72
2022/02/25 03:03:18;;;;;;;29.73;20.00;;;;;;;;;;4990996;28;20030;-72
2022/02/25 03:05:44;;;;;;;30.07;20.87;;;;;;;;;;5001273;28;20050;-72
2022/02/25 03:08:11;;;;;;;30.07;19.57;;;;;;;;;;4990945;28;20106;-72
2022/02/25 03:10:38;;;;;;;32.37;19.77;;;;;;;;;;4980551;28;20030;-72
2022/02/25 03:13:05;;;;;;;30.40;19.67;;;;;;;;;;4984524;28;20042;-73
2022/02/25 03:15:31;;;;;;;29.80;18.77;;;;;;;;;;4972674;28;20113;-73
2022/02/25 03:17:57;;;;;;;27.97;20.37;;;;;;;;;;4986609;28;20039;-73
2022/02/25 03:20:23;;;;;;;31.60;20.97;;;;;;;;;;4991523;28;20022;-73
2022/02/25 03:22:50;;;;;;;31.80;20.80;;;;;;;;;;4991868;28;20515;-72
2022/02/25 03:25:17;;;;;;;34.50;20.00;;;;;;;;;;4990455;28;20087;-73
2022/02/25 03:27:43;;;;;;;29.33;20.20;;;;;;;;;;4991984;28;20105;-72
2022/02/25 03:30:10;;;;;;;29.57;19.77;;;;;;;;;;4986298;28;20383;-72
2022/02/25 03:32:36;;;;;;;29.60;19.57;;;;;;;;;;4982404;28;20061;-71
2022/02/25 03:35:02;;;;;;;30.77;19.77;;;;;;;;;;4988737;28;20046;-72
2022/02/25 03:37:29;;;;;;;29.37;18.33;;;;;;;;;;4981764;28;20110;-72
2022/02/25 03:39:56;;;;;;;27.83;18.67;;;;;;;;;;4991134;28;20499;-72
2022/02/25 03:42:22;;;;;;;27.87;19.47;;;;;;;;;;4980243;28;20026;-72
2022/02/25 03:44:48;;;;;;;28.07;19.17;;;;;;;;;;4991859;28;20103;-73
2022/02/25 03:47:14;;;;;;;27.70;19.27;;;;;;;;;;4990240;28;20027;-73
2022/02/25 03:49:40;;;;;;;30.90;19.47;;;;;;;;;;4991455;28;20045;-73
2022/02/25 03:52:06;;;;;;;31.53;19.93;;;;;;;;;;4988028;28;20043;-73
2022/02/25 03:54:32;;;;;;;27.73;17.97;;;;;;;;;;4990013;28;20050;-73
2022/02/25 03:56:59;;;;;;;25.33;17.93;;;;;;;;;;4990567;28;20026;-73
2022/02/25 03:59:25;;;;;;;26.57;18.30;;;;;;;;;;4991892;28;20033;-72
2022/02/25 04:01:53;;;;;;;27.83;17.30;;;;;;;;;;4984256;28;20031;-73
2022/02/25 04:04:24;;;;;;;25.90;18.23;;;;;;;;;;4974482;28;20080;-73
2022/02/25 04:06:50;;;;;;;25.60;18.10;;;;;;;;;;4988617;28;20046;-73
2022/02/25 04:09:18;;;;;;;23.37;17.80;;;;;;;;;;4990216;28;20087;-73
2022/02/25 04:11:51;;;;;;;27.43;17.93;;;;;;;;;;4990229;28;20480;-73
2022/02/25 04:14:20;;;;;;;27.00;18.70;;;;;;;;;;4990276;28;20030;-74
2022/02/25 04:16:47;;;;;;;25.47;18.60;;;;;;;;;;4990818;28;20026;-74
2022/02/25 04:19:13;;;;;;;28.63;19.67;;;;;;;;;;4992294;28;20096;-74
2022/02/25 04:21:39;;;;;;;27.10;18.80;;;;;;;;;;4985980;28;20027;-74
2022/02/25 04:24:05;;;;;;;30.83;19.00;;;;;;;;;;4986317;28;20369;-74
2022/02/25 04:26:31;;;;;;;31.23;19.57;;;;;;;;;;4990144;28;20026;-74
2022/02/25 04:28:57;;;;;;;28.33;18.93;;;;;;;;;;4992001;28;20097;-74
2022/02/25 04:31:24;;;;;;;29.80;19.83;;;;;;;;;;4990436;28;20034;-73
2022/02/25 04:33:50;;;;;;;26.77;18.93;;;;;;;;;;4986574;28;20053;-73
2022/02/25 04:36:20;;;;;;;28.23;18.80;;;;;;;;;;4990919;28;20026;-73
2022/02/25 04:38:46;;;;;;;30.03;19.20;;;;;;;;;;4989667;28;20160;-74
2022/02/25 04:41:12;;;;;;;29.17;19.13;;;;;;;;;;4980183;28;20070;-73
2022/02/25 04:43:38;;;;;;;27.03;19.43;;;;;;;;;;4989929;28;21943;-74
2022/02/25 04:46:04;;;;;;;28.73;20.30;;;;;;;;;;4990196;28;20096;-73
2022/02/25 04:48:30;;;;;;;28.43;19.83;;;;;;;;;;4984048;28;20446;-73
2022/02/25 04:50:56;;;;;;;31.37;18.97;;;;;;;;;;4981716;28;20042;-73
2022/02/25 04:53:22;;;;;;;26.77;18.53;;;;;;;;;;4989767;28;20046;-73
2022/02/25 04:55:48;;;;;;;28.33;17.80;;;;;;;;;;4990883;28;20476;-72
2022/02/25 04:58:14;;;;;;;25.23;18.13;;;;;;;;;;4990346;28;20034;-72
2022/02/25 05:00:41;;;;;;;25.40;17.23;;;;;;;;;;4990400;28;20032;-72
2022/02/25 05:03:07;;;;;;;30.27;18.10;;;;;;;;;;4990408;28;20041;-73
2022/02/25 05:05:33;;;;;;;22.73;17.93;;;;;;;;;;4975492;28;20109;-72
2022/02/25 05:07:59;;;;;;;27.10;17.73;;;;;;;;;;4986566;28;20045;-72
2022/02/25 05:10:26;;;;;;;27.20;17.60;;;;;;;;;;4984782;28;20051;-73
2022/02/25 05:12:52;;;;;;;27.03;19.23;;;;;;;;;;4979289;28;20038;-73
2022/02/25 05:20:49;;;;;;;27.97;18.00;;;;;;;;;;4979617;28;19920;-73
2022/02/25 05:23:15;;;;;;;23.33;16.07;;;;;;;;;;4975786;28;20031;-72
2022/02/25 05:25:41;;;;;;;23.83;17.63;;;;;;;;;;4988029;28;20038;-71
2022/02/25 05:28:08;;;;;;;21.90;16.17;;;;;;;;;;4990090;28;20031;-71
2022/02/25 05:30:34;;;;;;;28.00;17.27;;;;;;;;;;4990629;28;22048;-72
2022/02/25 05:33:00;;;;;;;23.33;15.70;;;;;;;;;;4989700;28;20480;-72
2022/02/25 05:35:27;;;;;;;24.63;16.70;;;;;;;;;;4986479;28;20027;-71
2022/02/25 05:37:53;;;;;;;24.73;15.90;;;;;;;;;;4990125;28;20531;-72
2022/02/25 05:40:20;;;;;;;23.00;14.53;;;;;;;;;;4980603;28;20045;-72
2022/02/25 05:42:46;;;;;;;20.97;16.17;;;;;;;;;;4973241;28;20084;-72
2022/02/25 05:45:14;;;;;;;23.47;16.00;;;;;;;;;;4975606;28;20122;-71
2022/02/25 05:53:47;;;;;;;25.20;16.33;;;;;;;;;;4976536;28;20423;-72
2022/02/25 05:56:13;;;;;;;25.27;15.77;;;;;;;;;;4985752;28;20061;-72
2022/02/25 05:58:39;;;;;;;21.83;15.30;;;;;;;;;;4988031;28;20035;-72
2022/02/25 06:01:05;;;;;;;24.47;15.77;;;;;;;;;;4990724;28;20490;-72
2022/02/25 06:03:31;;;;;;;24.27;15.73;;;;;;;;;;4989003;28;20035;-71
2022/02/25 06:05:57;;;;;;;23.57;16.20;;;;;;;;;;4978364;28;20132;-72
2022/02/25 06:08:23;;;;;;;24.67;16.30;;;;;;;;;;4987076;28;20058;-71
2022/02/25 06:10:49;;;;;;;25.13;15.67;;;;;;;;;;4985510;28;20099;-71
2022/02/25 06:13:15;;;;;;;26.47;15.80;;;;;;;;;;4987891;28;20483;-71
2022/02/25 06:15:43;;;;;;;23.33;14.73;;;;;;;;;;4988314;28;20031;-71
2022/02/25 06:18:09;;;;;;;24.17;15.00;;;;;;;;;;4989810;28;20061;-71
2022/02/25 06:20:35;;;;;;;27.97;15.60;;;;;;;;;;4986425;28;20030;-71
2022/02/25 06:23:02;;;;;;;20.90;14.27;;;;;;;;;;4989572;28;20023;-71
2022/02/25 06:25:28;;;;;;;20.43;15.67;;;;;;;;;;4982619;28;20023;-71
2022/02/25 06:27:54;;;;;;;24.10;16.63;;;;;;;;;;4971209;28;20030;-71
2022/02/25 06:30:20;;;;;;;26.00;15.63;;;;;;;;;;4987159;28;20029;-71
2022/02/25 06:32:46;;;;;;;25.77;15.17;;;;;;;;;;4980100;28;20043;-70
2022/02/25 06:35:13;;;;;;;21.63;15.30;;;;;;;;;;4972640;28;20086;-71
2022/02/25 06:37:39;;;;;;;28.00;15.80;;;;;;;;;;4989014;28;20037;-71
2022/02/25 06:40:06;;;;;;;26.60;17.07;;;;;;;;;;4989511;28;20061;-71
2022/02/25 06:42:32;;;;;;;23.53;15.20;;;;;;;;;;4988833;28;20034;-70
2022/02/25 06:44:58;;;;;;;23.17;14.03;;;;;;;;;;4988205;28;20038;-70
2022/02/25 06:47:24;;;;;;;21.00;13.47;;;;;;;;;;4988582;28;20403;-70
2022/02/25 06:49:50;;;;;;;24.03;14.57;;;;;;;;;;4989151;28;20054;-70
2022/02/25 06:52:16;;;;;;;22.20;15.57;;;;;;;;;;4971259;28;20042;-70
2022/02/25 06:54:42;;;;;;;21.43;14.37;;;;;;;;;;4987456;28;20041;-70
2022/02/25 06:57:08;;;;;;;24.27;14.37;;;;;;;;;;4988990;28;20030;-71
2022/02/25 06:59:35;;;;;;;22.90;14.50;;;;;;;;;;4990121;28;20058;-71
2022/02/25 07:02:01;;;;;;;20.67;14.97;;;;;;;;;;4986475;28;20022;-71
2022/02/25 07:04:27;;;;;;;25.83;15.20;;;;;;;;;;4990109;28;20490;-71
2022/02/25 07:06:54;;;;;;;25.03;14.73;;;;;;;;;;4992314;28;20071;-71
2022/02/25 07:09:20;;;;;;;21.00;13.73;;;;;;;;;;4992440;28;20041;-70
2022/02/25 07:11:46;;;;;;;23.30;15.07;;;;;;;;;;4980990;28;20038;-70
2022/02/25 07:14:12;;;;;;;20.37;14.40;;;;;;;;;;4973355;28;20037;-71
2022/02/25 07:16:38;;;;;;;26.30;15.23;;;;;;;;;;4973342;28;20069;-70
2022/02/25 07:19:04;;;;;;;27.00;14.73;;;;;;;;;;4973519;28;20059;-70
2022/02/25 07:21:30;;;;;;;23.97;15.93;;;;;;;;;;4973712;28;20038;-70
2022/02/25 07:23:56;;;;;;;25.77;15.20;;;;;;;;;;4973694;28;20077;-71
2022/02/25 07:26:22;;;;;;;27.80;15.50;;;;;;;;;;4983245;28;20030;-70
2022/02/25 07:28:48;;;;;;;27.63;16.27;;;;;;;;;;4991653;28;20030;-70
2022/02/25 07:31:15;;;;;;;22.63;15.23;;;;;;;;;;4987055;28;20058;-70
2022/02/25 07:33:41;;;;;;;25.53;15.70;;;;;;;;;;4992935;28;20102;-71
2022/02/25 07:36:07;;;;;;;27.30;14.30;;;;;;;;;;4988932;28;20031;-70
2022/02/25 07:38:33;;;;;;;28.20;16.30;;;;;;;;;;4992488;28;20450;-70
2022/02/25 07:41:02;;;;;;;25.70;16.50;;;;;;;;;;4984732;28;20023;-70
2022/02/25 07:43:28;;;;;;;23.27;15.90;;;;;;;;;;4973361;28;20029;-70
2022/02/25 07:45:54;;;;;;;24.00;16.17;;;;;;;;;;4978184;28;20030;-71
2022/02/25 07:48:21;;;;;;;25.83;16.13;;;;;;;;;;4991544;28;20045;-71
2022/02/25 07:50:48;;;;;;;27.23;15.93;;;;;;;;;;4990682;28;20098;-71
2022/02/25 07:53:14;;;;;;;24.70;15.53;;;;;;;;;;4992721;28;20103;-70
2022/02/25 07:55:40;;;;;;;24.37;15.40;;;;;;;;;;4988233;28;20027;-70
2022/02/25 07:58:07;;;;;;;25.97;15.60;;;;;;;;;;4973452;28;20034;-71
2022/02/25 08:00:33;;;;;;;27.40;15.53;;;;;;;;;;4973476;28;20061;-70
2022/02/25 08:03:01;;;;;;;23.47;14.87;;;;;;;;;;4991352;28;20027;-70
2022/02/25 08:05:27;;;;;;;25.40;15.87;;;;;;;;;;4991637;28;20153;-69
2022/02/25 08:07:53;;;;;;;24.30;15.00;;;;;;;;;;4991280;28;20030;-70
2022/02/25 08:10:19;;;;;;;22.57;14.70;;;;;;;;;;4985550;28;20100;-69
2022/02/25 08:12:47;;;;;;;24.77;15.30;;;;;;;;;;4987718;28;20080;-71
2022/02/25 08:15:15;;;;;;;28.87;15.97;;;;;;;;;;4991908;28;20090;-71
2022/02/25 08:17:41;;;;;;;24.10;16.00;;;;;;;;;;4994528;28;20034;-71
2022/02/25 08:20:08;;;;;;;29.70;16.43;;;;;;;;;;4978303;28;20066;-72
2022/02/25 08:22:35;;;;;;;27.53;16.43;;;;;;;;;;4989044;28;20031;-72
2022/02/25 08:25:02;;;;;;;26.43;15.70;;;;;;;;;;4979511;28;20049;-71
2022/02/25 08:34:04;;;;;;;28.73;17.70;;;;;;;;;;4979831;28;20521;-72
2022/02/25 08:36:30;;;;;;;27.33;16.80;;;;;;;;;;4986083;28;20030;-72
2022/02/25 08:38:56;;;;;;;25.27;17.67;;;;;;;;;;4992136;28;20026;-72
2022/02/25 08:41:22;;;;;;;32.43;17.97;;;;;;;;;;4991968;28;20025;-73
2022/02/25 08:43:49;;;;;;;34.70;17.77;;;;;;;;;;4973712;28;20019;-73
2022/02/25 08:46:15;;;;;;;28.87;16.60;;;;;;;;;;4972462;28;20035;-73
2022/02/25 08:51:48;;;;;;;29.30;17.27;;;;;;;;;;4976801;28;20041;-73
2022/02/25 08:54:16;;;;;;;30.23;17.53;;;;;;;;;;4970925;28;20392;-72
2022/02/25 08:56:42;;;;;;;31.67;17.87;;;;;;;;;;4972180;28;20031;-73
2022/02/25 08:59:08;;;;;;;32.27;18.03;;;;;;;;;;4970946;28;20085;-73
2022/02/25 09:01:35;;;;;;;30.47;18.20;;;;;;;;;;4972280;28;20037;-73
2022/02/25 09:04:02;;;;;;;33.50;18.20;;;;;;;;;;4980711;28;20472;-73
2022/02/25 09:06:29;;;;;;;29.53;17.07;;;;;;;;;;4990149;28;20092;-73
2022/02/25 09:08:56;;;;;;;32.60;18.03;;;;;;;;;;4983069;28;20140;-72
2022/02/25 09:11:22;;;;;;;37.73;19.57;;;;;;;;;;4972128;28;20096;-73
2022/02/25 09:13:49;;;;;;;39.23;19.67;;;;;;;;;;4977547;28;20027;-72
2022/02/25 09:16:15;;;;;;;32.33;18.13;;;;;;;;;;4991478;28;20022;-73
2022/02/25 09:18:41;;;;;;;36.77;20.03;;;;;;;;;;4986170;28;20564;-72
2022/02/25 09:21:07;;;;;;;35.67;20.47;;;;;;;;;;4991336;28;20050;-72
2022/02/25 09:23:33;;;;;;;33.80;20.27;;;;;;;;;;4989818;28;20480;-72
2022/02/25 09:25:59;;;;;;;32.57;19.63;;;;;;;;;;4990068;28;20037;-72
2022/02/25 09:28:26;;;;;;;36.45;20.58;;;;;;;;;;4991044;28;20027;-72
2022/02/25 09:30:52;;;;;;;35.33;20.35;;;;;;;;;;4984470;28;20171;-72
2022/02/25 09:33:19;;;;;;;39.65;21.17;;;;;;;;;;4990932;28;20396;-72
2022/02/25 09:35:45;;;;;;;38.85;20.58;;;;;;;;;;4984074;28;20071;-72
2022/02/25 09:38:11;;;;;;;43.83;21.63;;;;;;;;;;4989424;28;20101;-72
2022/02/25 09:40:38;;;;;;;37.75;21.38;;;;;;;;;;4983045;28;20515;-72
2022/02/25 09:43:13;;;;;;;41.42;21.33;;;;;;;;;;4988921;28;20023;-73
2022/02/25 09:45:39;;;;;;;44.17;21.77;;;;;;;;;;4987967;28;20038;-72
2022/02/25 09:48:11;;;;;;;38.17;20.80;;;;;;;;;;4975279;28;20034;-73
2022/02/25 09:50:38;;;;;;;38.22;21.13;;;;;;;;;;4973538;28;20031;-72
2022/02/25 09:53:04;;;;;;;35.67;20.88;;;;;;;;;;4990764;28;20042;-72
2022/02/25 09:55:33;;;;;;;39.47;22.85;;;;;;;;;;4989904;28;20065;-73
2022/02/25 09:58:03;;;;;;;43.17;21.83;;;;;;;;;;4990973;28;20058;-72
2022/02/25 10:00:29;;;;;;;40.58;21.73;;;;;;;;;;4988001;28;20023;-72
2022/02/25 10:02:56;;;;;;;38.13;21.05;;;;;;;;;;4990866;28;20088;-72
2022/02/25 10:05:23;;;;;;;40.53;22.60;;;;;;;;;;4989793;28;20056;-72
2022/02/25 10:07:49;;;;;;;39.78;23.13;;;;;;;;;;4971539;28;20027;-72
2022/02/25 10:10:17;;;;;;;41.65;23.33;;;;;;;;;;4989995;28;20068;-73
2022/02/25 10:12:47;;;;;;;46.88;23.20;;;;;;;;;;4988515;28;20043;-73
2022/02/25 10:15:14;;;;;;;42.70;23.90;;;;;;;;;;4990623;28;20023;-73
2022/02/25 10:17:40;;;;;;;44.25;24.13;;;;;;;;;;4989898;28;20018;-73
2022/02/25 10:20:07;;;;;;;43.63;25.17;;;;;;;;;;4989946;28;20034;-71
2022/02/25 10:22:42;;;;;;;42.95;24.45;;;;;;;;;;4988561;28;20038;-72
2022/02/25 10:25:12;;;;;;;42.67;23.38;;;;;;;;;;4990251;28;20027;-72
2022/02/25 10:27:38;;;;;;;43.53;25.40;;;;;;;;;;4987901;28;20025;-73
2022/02/25 10:30:04;;;;;;;44.30;24.67;;;;;;;;;;4989315;28;20404;-72
2022/02/25 10:32:34;;;;;;;43.10;24.92;;;;;;;;;;4989060;28;20030;-72
2022/02/25 10:35:01;;;;;;;46.22;24.00;;;;;;;;;;4990576;28;20058;-72
2022/02/25 10:37:27;;;;;;;46.65;26.48;;;;;;;;;;4990209;28;20419;-72
2022/02/25 10:39:54;;;;;;;42.20;24.55;;;;;;;;;;4993742;28;20035;-73
2022/02/25 10:42:23;;;;;;;47.08;26.38;;;;;;;;;;4992580;28;20054;-72
2022/02/25 10:44:57;;;;;;;44.08;26.60;;;;;;;;;;4993776;28;20065;-72
2022/02/25 10:47:27;;;;;;;41.33;25.40;;;;;;;;;;4992505;28;20381;-73
2022/02/25 10:50:02;;;;;;;44.92;26.15;;;;;;;;;;4980462;28;20064;-72
2022/02/25 10:52:36;;;;;;;42.15;25.05;;;;;;;;;;4992176;28;20038;-73
2022/02/25 10:55:04;;;;;;;44.97;25.92;;;;;;;;;;4993471;28;20183;-73
2022/02/25 10:57:30;;;;;;;42.10;25.70;;;;;;;;;;4992266;28;20022;-72
2022/02/25 10:59:57;;;;;;;45.20;24.90;;;;;;;;;;4992183;28;20117;-73
2022/02/25 11:02:25;;;;;;;40.33;24.13;;;;;;;;;;4992398;28;20026;-71
2022/02/25 11:05:10;;;;;;;44.45;25.38;;;;;;;;;;4992115;28;20050;-71
2022/02/25 11:07:38;;;;;;;37.25;23.15;;;;;;;;;;4976497;28;20587;-71
2022/02/25 11:10:05;;;;;;;39.45;23.40;;;;;;;;;;4972484;28;20027;-71
2022/02/25 11:12:31;;;;;;;41.08;24.10;;;;;;;;;;4987236;28;20095;-71
2022/02/25 11:14:58;;;;;;;42.20;24.98;;;;;;;;;;4993162;28;20113;-71
2022/02/25 11:17:24;;;;;;;39.00;24.13;;;;;;;;;;4992158;28;20039;-71
2022/02/25 11:19:55;;;;;;;45.40;26.33;;;;;;;;;;4993219;28;20065;-71
2022/02/25 11:22:21;;;;;;;48.45;28.23;;;;;;;;;;4989826;28;20076;-72
2022/02/25 11:24:48;;;;;;;47.97;27.05;;;;;;;;;;4993077;28;20076;-71
2022/02/25 11:27:15;;;;;;;45.30;27.70;;;;;;;;;;4990492;28;20101;-70
2022/02/25 11:30:00;;;;;;;50.40;29.08;;;;;;;;;;4993059;28;20034;-70
2022/02/25 11:32:31;;;;;;;51.00;29.95;;;;;;;;;;4991519;28;20074;-69
2022/02/25 11:34:57;;;;;;;47.60;29.50;;;;;;;;;;4992982;28;20054;-71
2022/02/25 11:37:46;;;;;;;57.75;30.85;;;;;;;;;;4990028;28;20030;-71
2022/02/25 11:40:12;;;;;;;55.85;30.20;;;;;;;;;;4975400;28;20105;-71
2022/02/25 11:42:38;;;;;;;51.40;29.40;;;;;;;;;;4989119;28;20388;-70
2022/02/25 11:45:18;;;;;;;47.28;27.90;;;;;;;;;;4973225;28;20031;-71
2022/02/25 11:47:49;;;;;;;45.63;26.02;;;;;;;;;;4972283;28;20507;-70
2022/02/25 11:50:30;;;;;;;44.35;26.83;;;;;;;;;;4981610;28;20030;-71
2022/02/25 11:53:00;;;;;;;47.28;27.40;;;;;;;;;;4990814;28;20125;-71
2022/02/25 11:55:26;;;;;;;44.78;25.83;;;;;;;;;;4991433;28;20027;-71
2022/02/25 11:57:53;;;;;;;44.40;26.38;;;;;;;;;;4990389;28;20033;-71
2022/02/25 12:00:21;;;;;;;43.53;25.35;;;;;;;;;;4989885;28;20058;-70
2022/02/25 12:03:05;;;;;;;47.42;26.40;;;;;;;;;;4991273;28;20033;-71
2022/02/25 12:05:37;;;;;;;40.25;23.42;;;;;;;;;;4991495;28;20111;-70
2022/02/25 12:08:18;;;;;;;42.15;22.92;;;;;;;;;;4992040;28;20035;-71
2022/02/25 12:10:44;;;;;;;38.40;21.17;;;;;;;;;;4991135;28;20072;-71
2022/02/25 12:13:19;;;;;;;44.03;21.17;;;;;;;;;;4990174;28;20082;-71
2022/02/25 12:15:46;;;;;;;36.78;21.33;;;;;;;;;;4990204;28;20034;-71
2022/02/25 12:18:15;;;;;;;37.80;20.45;;;;;;;;;;4992462;28;20103;-71
2022/02/25 12:20:41;;;;;;;32.97;19.08;;;;;;;;;;4990641;28;20019;-71
2022/02/25 12:23:19;;;;;;;29.60;17.77;;;;;;;;;;4991544;28;20092;-72
2022/02/25 12:25:57;;;;;;;33.97;18.70;;;;;;;;;;4991353;28;20109;-71
2022/02/25 12:28:30;;;;;;;30.48;17.65;;;;;;;;;;4972828;28;20038;-70
2022/02/25 12:31:08;;;;;;;27.95;16.42;;;;;;;;;;4992856;28;20053;-70
2022/02/25 12:33:43;;;;;;;26.38;14.30;;;;;;;;;;4985397;28;20034;-71
2022/02/25 12:36:16;;;;;;;26.63;16.50;;;;;;;;;;4980488;28;20475;-71
2022/02/25 12:38:50;;;;;;;26.70;15.13;;;;;;;;;;4991019;28;20029;-71
2022/02/25 12:41:23;;;;;;;22.25;14.32;;;;;;;;;;4990884;28;20027;-71
2022/02/25 12:43:54;;;;;;;24.58;13.40;;;;;;;;;;4992313;28;20076;-71
2022/02/25 12:46:24;;;;;;;20.25;11.93;;;;;;;;;;4989510;28;20014;-71
2022/02/25 12:48:51;;;;;;;16.85;10.35;;;;;;;;;;4988507;28;20030;-70
2022/02/25 12:51:18;;;;;;;22.92;12.25;;;;;;;;;;4990436;28;20471;-70
2022/02/25 12:53:48;;;;;;;21.00;12.63;;;;;;;;;;4991749;28;20037;-70
2022/02/25 12:56:17;;;;;;;17.25;11.15;;;;;;;;;;4989172;28;20080;-71
2022/02/25 12:58:43;;;;;;;19.92;11.05;;;;;;;;;;4991011;28;20030;-70
2022/02/25 13:01:15;;;;;;;21.20;12.52;;;;;;;;;;4989624;28;20083;-71
2022/02/25 13:03:42;;;;;;;17.92;11.90;;;;;;;;;;4990381;28;20403;-71
2022/02/25 13:06:08;;;;;;;18.45;10.40;;;;;;;;;;4990060;28;20133;-70
2022/02/25 13:08:34;;;;;;;16.85;9.98;;;;;;;;;;4991516;28;20449;-70
2022/02/25 13:11:01;;;;;;;23.85;11.20;;;;;;;;;;4990421;28;20022;-69
2022/02/25 13:13:28;;;;;;;15.60;8.45;;;;;;;;;;4975641;28;20053;-69
2022/02/25 13:16:07;;;;;;;15.52;6.85;;;;;;;;;;4977529;28;20083;-70
2022/02/25 13:18:33;;;;;;;12.07;6.38;;;;;;;;;;4974761;28;20490;-69
2022/02/25 13:21:17;;;;;;;10.15;5.65;;;;;;;;;;4988595;28;20503;-69
2022/02/25 13:23:50;;;;;;;12.95;6.72;;;;;;;;;;4991509;28;20107;-70
2022/02/25 13:26:21;;;;;;;10.82;6.50;;;;;;;;;;4988693;28;20019;-71
2022/02/25 13:28:47;;;;;;;9.05;5.93;;;;;;;;;;4991251;28;20057;-71
2022/02/25 13:31:22;;;;;;;13.40;6.90;;;;;;;;;;4989588;28;20422;-71
2022/02/25 13:33:48;;;;;;;12.25;6.85;;;;;;;;;;4989352;28;20622;-71
2022/02/25 13:36:14;;;;;;;12.32;7.10;;;;;;;;;;4971698;28;20045;-71
2022/02/25 13:38:43;;;;;;;15.88;7.90;;;;;;;;;;4971721;28;20391;-71
2022/02/25 13:41:09;;;;;;;17.05;9.93;;;;;;;;;;4974356;28;20022;-71
2022/02/25 13:43:40;;;;;;;15.38;9.35;;;;;;;;;;4991375;28;20031;-70
2022/02/25 13:46:15;;;;;;;18.15;10.15;;;;;;;;;;4977903;28;20738;-71
2022/02/25 13:54:21;;;;;;;10.43;6.50;;;;;;;;;;4976884;28;20057;-71
2022/02/25 13:56:49;;;;;;;8.65;4.60;;;;;;;;;;4973735;28;20100;-71
2022/02/25 13:59:26;;;;;;;7.28;2.38;;;;;;;;;;4971577;28;20034;-71
2022/02/25 14:02:08;;;;;;;4.85;1.42;;;;;;;;;;4970334;28;20019;-71
2022/02/25 14:04:38;;;;;;;2.53;1.08;;;;;;;;;;4973644;28;20485;-69
2022/02/25 14:07:08;;;;;;;3.42;1.88;;;;;;;;;;4980073;28;20034;-71
2022/02/25 14:12:45;;;;;;;1.27;0.82;;;;;;;;;;4978757;28;20054;-70
2022/02/25 14:15:13;;;;;;;3.45;0.45;;;;;;;;;;4981914;28;20490;-70
2022/02/25 14:17:39;;;;;;;1.13;0.35;;;;;;;;;;4992992;28;20033;-70
2022/02/25 14:20:16;;;;;;;2.15;0.32;;;;;;;;;;4994107;28;20065;-70
2022/02/25 14:22:58;;;;;;;0.70;0.25;;;;;;;;;;4992803;28;20042;-72
2022/02/25 14:25:36;;;;;;;3.50;0.47;;;;;;;;;;4994070;28;20038;-71
2022/02/25 14:28:05;;;;;;;2.85;0.40;;;;;;;;;;4993135;28;20034;-72
2022/02/25 14:30:44;;;;;;;1.40;0.70;;;;;;;;;;4993617;28;20030;-72
2022/02/25 14:33:13;;;;;;;4.95;0.35;;;;;;;;;;4990466;28;20053;-72
2022/02/25 14:36:03;;;;;;;0.65;0.47;;;;;;;;;;4993686;28;20037;-72
2022/02/25 14:38:30;;;;;;;4.00;0.57;;;;;;;;;;4974613;28;20500;-71
2022/02/25 14:40:56;;;;;;;4.68;0.50;;;;;;;;;;4974401;28;20027;-72
2022/02/25 14:52:33;;;;;;;2.35;0.50;;;;;;;;;;4984837;28;20049;-71
2022/02/25 14:54:59;;;;;;;2.72;0.40;;;;;;;;;;4975341;28;20030;-71
2022/02/25 14:57:26;;;;;;;0.30;0.20;;;;;;;;;;4974295;28;20031;-72
2022/02/25 14:59:52;;;;;;;4.65;0.43;;;;;;;;;;4990445;28;20038;-72